Suffield, Connecticut
Current Conditions -  °F | °C
As of 8:51 AM on Thursday 18 Dec 2014 (Local Time) from KBDL Reporting Station
Overcast Overcast  
Wind Chill: 29°   Ceiling: 3300
Heat Index: 38°   Visibility: 10mi
Dew Point: 26°   Wind: 15mph
Humidity: 62%   Direction: 310°NW
Pressure: 29.86"   Gusts: 28mph
Location:  41.98°N, 72.65°W
Report Text: KBDL 181351Z 31013G24KT 10SM OVC033 03/M03 A2986 RMK AO2 SLP113 T00331033
Loading
Personal Weather Stations






























Interactive Weather Map New forecast layout! Learn more

10-Day Weather Forecast

Advertisements
Track Severe Weather on mobile